Terminal Aerodrome Forecast
Issued by NWS Denver/Boulder, CO

Home | Current Version | Previous Version | Text Only | Print | Product List | Glossary On
Versions: 1 2 3 4 5 6 7 8 9 10 11 12 13 14 15 16 17 18 19 20 21 22 23 24 25 26 27 28 29 30 31 32 33 34 35 36 37 38 39 40 41 42 43 44 45 46 47 48 49 50
000
FTUS45 KBOU 232336
TAFDEN
TAF
KDEN 232336Z 2400/2506 32015KT 3SM -SHSN BR BKN010 OVC040
      TEMPO 2400/2402 2SM -SHSN BR OVC010
     FM240200 30012KT 3SM -SHSN BR SCT005 OVC010
      TEMPO 2402/2405 1SM -SN BR BKN005
     FM240900 28006KT 5SM BR VCFG SCT005 BKN015
     FM241200 23006KT P6SM FEW025 BKN100
     FM241600 29018G26KT P6SM FEW120
     FM241800 30023G31KT P6SM SCT250
     FM242300 01009KT P6SM SCT200
     FM250500 20010KT P6SM SCT200=

USA.gov is the U.S. government's official web portal to all federal, state and local government web resources and services.